Terminal Aerodrome Forecast
Issued by NWS

Current Version | Previous Version | Text Only | Print | Product List | Glossary On
Versions: 1 2 3 4 5 6 7 8 9 10 11 12 13 14 15 16 17 18
000
FTUS46 KLOX 062320
TAFVNY
TAF
KVNY 062320Z 0700/0724 14008KT P6SM SKC
     FM070300 VRB03KT P6SM SKC
     FM070800 VRB03KT P6SM OVC010
     FM071800 VRB03KT P6SM SKC
     FM072000 14008KT P6SM SKC=

USA.gov is the U.S. government's official web portal to all federal, state and local government web resources and services.